Time;durP1;ratioP1;P1;durP2;ratioP2;P2;SDS_P1;SDS_P2;PMS_P1;PMS_P2;Temp;Humidity;BMP_temperature;BMP_pressure;BME280_temperature;BME280_humidity;BME280_pressure;Samples;Min_cycle;Max_cycle;Signal;HPM_P1;HPM_P2
2023/10/22 00:02:16;;;;;;;2.38;0.50;;;;;;;13.30;100.00;99441.41;4947591;29;20061;-80
2023/10/22 00:04:41;;;;;;;9.13;1.67;;;;;;;13.29;100.00;99459.78;4935586;29;20026;-80
2023/10/22 00:07:07;;;;;;;0.60;0.40;;;;;;;13.33;100.00;99452.97;4915090;29;20047;-80
2023/10/22 00:09:33;;;;;;;1.10;0.80;;;;;;;13.33;100.00;99460.34;4922606;28;20039;-80
2023/10/22 00:11:58;;;;;;;5.57;0.80;;;;;;;13.32;100.00;99464.09;4932533;29;20285;-80
2023/10/22 00:14:24;;;;;;;2.50;0.50;;;;;;;13.27;100.00;99463.78;4941253;29;20040;-80
2023/10/22 00:16:49;;;;;;;3.92;0.60;;;;;;;13.28;100.00;99458.09;4918311;29;20034;-80
2023/10/22 00:19:15;;;;;;;3.78;0.55;;;;;;;13.22;100.00;99465.13;4933494;29;20051;-80
2023/10/22 00:21:40;;;;;;;2.97;0.60;;;;;;;13.22;100.00;99475.28;4919326;29;20118;-80
2023/10/22 00:24:06;;;;;;;5.07;0.57;;;;;;;13.19;100.00;99483.88;4941254;28;20042;-80
2023/10/22 00:26:31;;;;;;;2.05;0.55;;;;;;;13.20;100.00;99482.84;4943531;28;20035;-80
2023/10/22 00:28:57;;;;;;;1.55;0.40;;;;;;;13.18;100.00;99485.75;4932128;29;20035;-80
2023/10/22 00:31:22;;;;;;;2.28;0.52;;;;;;;13.18;100.00;99485.75;4917341;29;20510;-80
2023/10/22 00:33:48;;;;;;;3.33;0.65;;;;;;;13.18;100.00;99491.25;4919676;29;20118;-80
2023/10/22 00:36:13;;;;;;;3.17;0.50;;;;;;;13.14;100.00;99481.63;4916986;29;20100;-80
2023/10/22 00:38:39;;;;;;;5.00;0.60;;;;;;;13.15;100.00;99496.22;4919693;28;20862;-80
2023/10/22 00:41:04;;;;;;;11.35;0.75;;;;;;;13.12;100.00;99496.56;4928637;29;20054;-80
2023/10/22 00:43:29;;;;;;;2.08;0.50;;;;;;;13.11;100.00;99500.34;4952071;29;20079;-80
2023/10/22 00:45:55;;;;;;;3.45;0.52;;;;;;;13.02;100.00;99486.63;4948913;28;20063;-80
2023/10/22 00:48:21;;;;;;;2.45;0.50;;;;;;;13.04;100.00;99500.19;4934056;29;20066;-80
2023/10/22 00:50:47;;;;;;;3.88;0.60;;;;;;;13.03;100.00;99512.19;4945404;29;20059;-80
2023/10/22 00:53:16;;;;;;;1.67;0.45;;;;;;;13.04;100.00;99501.03;4931543;29;20541;-80
2023/10/22 00:55:45;;;;;;;2.72;0.73;;;;;;;13.08;100.00;99501.53;4919518;29;20027;-80
2023/10/22 00:58:12;;;;;;;2.58;0.60;;;;;;;13.09;100.00;99502.44;4945859;28;20028;-87
2023/10/22 01:00:38;;;;;;;5.32;0.60;;;;;;;13.08;100.00;99503.44;4950918;29;20062;-87
2023/10/22 01:03:04;;;;;;;3.85;0.57;;;;;;;13.16;100.00;99508.94;4933605;29;20371;-86
2023/10/22 01:05:31;;;;;;;2.35;0.65;;;;;;;13.17;100.00;99514.28;4905590;29;20034;-86
2023/10/22 01:07:57;;;;;;;3.22;0.75;;;;;;;13.18;100.00;99502.25;4950220;29;20035;-87
2023/10/22 01:10:23;;;;;;;2.70;0.50;;;;;;;13.18;100.00;99518.75;4935960;29;20110;-87
2023/10/22 01:12:49;;;;;;;4.45;0.70;;;;;;;13.19;100.00;99514.09;4932704;29;20413;-88
2023/10/22 01:15:15;;;;;;;3.55;0.50;;;;;;;13.20;100.00;99532.31;4936206;29;20046;-87
2023/10/22 01:17:41;;;;;;;1.95;0.50;;;;;;;13.23;100.00;99519.09;4920755;29;20031;-87
2023/10/22 01:20:09;;;;;;;1.30;0.43;;;;;;;13.20;100.00;99533.16;4920233;29;20496;-87
2023/10/22 01:22:34;;;;;;;3.10;0.40;;;;;;;13.20;100.00;99522.19;4944350;29;20036;-87
2023/10/22 01:25:00;;;;;;;1.65;0.50;;;;;;;13.18;100.00;99539.84;4941592;28;20637;-86
2023/10/22 01:27:25;;;;;;;7.35;0.90;;;;;;;13.20;100.00;99541.41;4928274;28;20511;-87
2023/10/22 01:29:51;;;;;;;2.42;0.52;;;;;;;13.17;100.00;99544.50;4922777;29;20130;-86
2023/10/22 01:32:16;;;;;;;1.15;0.52;;;;;;;13.13;100.00;99558.75;4945926;29;20044;-87
2023/10/22 01:34:41;;;;;;;3.15;0.40;;;;;;;13.12;100.00;99551.53;4926715;29;20039;-87
2023/10/22 01:37:07;;;;;;;1.42;0.50;;;;;;;13.05;100.00;99540.34;4923977;29;20117;-87
2023/10/22 01:39:34;;;;;;;3.50;0.40;;;;;;;13.04;100.00;99549.66;4922546;29;20027;-86
2023/10/22 01:41:59;;;;;;;2.10;0.43;;;;;;;13.03;100.00;99554.25;4921338;29;20110;-87
2023/10/22 01:44:25;;;;;;;2.58;0.70;;;;;;;13.02;100.00;99555.31;4912018;29;20401;-87
2023/10/22 01:46:50;;;;;;;2.45;0.50;;;;;;;12.96;100.00;99547.75;4905098;29;20518;-88
2023/10/22 01:49:17;;;;;;;2.35;0.60;;;;;;;12.97;100.00;99562.31;4939524;29;20045;-87
2023/10/22 01:51:43;;;;;;;3.38;0.50;;;;;;;12.94;100.00;99560.78;4908993;29;20032;-87
2023/10/22 01:54:10;;;;;;;1.60;0.50;;;;;;;12.94;100.00;99569.03;4932170;29;20112;-87
2023/10/22 01:56:36;;;;;;;2.13;0.50;;;;;;;12.94;100.00;99566.28;4909883;29;20035;-87
2023/10/22 01:59:01;;;;;;;5.88;0.68;;;;;;;12.95;100.00;99570.72;4908591;29;20042;-87
2023/10/22 02:01:27;;;;;;;2.58;0.90;;;;;;;12.95;100.00;99575.38;4922659;29;20039;-87
2023/10/22 02:03:53;;;;;;;1.23;0.50;;;;;;;12.93;100.00;99577.44;4905605;29;20155;-86
2023/10/22 02:06:18;;;;;;;2.80;0.55;;;;;;;12.92;100.00;99581.22;4922664;29;20031;-86
2023/10/22 02:08:46;;;;;;;4.93;0.68;;;;;;;12.88;100.00;99577.94;4921547;29;20126;-80
2023/10/22 02:11:11;;;;;;;1.77;0.50;;;;;;;12.86;100.00;99580.84;4938128;29;20489;-79
2023/10/22 02:13:37;;;;;;;0.80;0.50;;;;;;;12.84;100.00;99582.91;4945108;29;20031;-80
2023/10/22 02:16:03;;;;;;;2.33;0.50;;;;;;;12.81;100.00;99588.75;4921325;29;20039;-79
2023/10/22 02:18:28;;;;;;;1.45;0.57;;;;;;;12.82;100.00;99590.47;4921214;29;20081;-80
2023/10/22 02:20:55;;;;;;;2.50;0.52;;;;;;;12.81;100.00;99587.91;4921543;29;20035;-80
2023/10/22 02:23:21;;;;;;;5.75;0.50;;;;;;;12.79;100.00;99611.91;4950697;28;20047;-80
2023/10/22 02:25:48;;;;;;;5.22;1.27;;;;;;;12.76;100.00;99604.03;4948757;28;20451;-80
2023/10/22 02:28:13;;;;;;;3.17;0.85;;;;;;;12.77;100.00;99617.56;4921340;29;20063;-80
2023/10/22 02:30:39;;;;;;;4.45;0.38;;;;;;;12.74;100.00;99615.16;4919470;29;20066;-80
2023/10/22 02:33:04;;;;;;;4.45;0.60;;;;;;;12.79;100.00;99622.88;4933713;29;20496;-80
2023/10/22 02:35:31;;;;;;;3.25;0.60;;;;;;;12.78;100.00;99621.19;4920911;29;20042;-80
2023/10/22 02:37:57;;;;;;;3.92;0.50;;;;;;;12.76;100.00;99626.84;4933087;29;20070;-79
2023/10/22 02:40:22;;;;;;;1.45;0.45;;;;;;;12.81;100.00;99621.72;4937368;29;20035;-80
2023/10/22 02:42:48;;;;;;;2.33;0.60;;;;;;;12.81;100.00;99626.34;4926234;29;20644;-80
2023/10/22 02:45:14;;;;;;;3.30;0.70;;;;;;;12.78;100.00;99634.91;4913711;29;20126;-80
2023/10/22 02:47:39;;;;;;;4.22;0.40;;;;;;;12.79;100.00;99643.00;4931504;28;20050;-80
2023/10/22 02:50:05;;;;;;;4.28;0.85;;;;;;;12.81;100.00;99648.31;4936470;29;20043;-80
2023/10/22 02:52:31;;;;;;;3.50;1.05;;;;;;;12.77;100.00;99636.78;4950102;29;20028;-80
2023/10/22 02:54:56;;;;;;;2.17;0.50;;;;;;;12.78;100.00;99649.50;4935511;29;20054;-80
2023/10/22 02:57:22;;;;;;;6.93;0.70;;;;;;;12.83;100.00;99654.50;4950911;28;20122;-80
2023/10/22 02:59:47;;;;;;;1.50;0.77;;;;;;;12.81;100.00;99667.56;4935459;29;20027;-80
2023/10/22 03:02:13;;;;;;;3.60;0.60;;;;;;;12.86;100.00;99670.66;4935395;29;20031;-80
2023/10/22 03:04:38;;;;;;;4.95;0.60;;;;;;;12.81;100.00;99667.56;4936305;29;20465;-80
2023/10/22 03:07:04;;;;;;;6.03;0.98;;;;;;;12.77;100.00;99666.16;4937290;29;20035;-80
2023/10/22 03:09:29;;;;;;;1.02;0.57;;;;;;;12.82;100.00;99667.38;4932695;29;20569;-80
2023/10/22 03:11:54;;;;;;;0.68;0.45;;;;;;;12.76;100.00;99673.53;4928905;29;20033;-80
2023/10/22 03:14:20;;;;;;;2.28;0.60;;;;;;;12.84;100.00;99681.81;4935284;28;20040;-80
2023/10/22 03:16:48;;;;;;;2.83;0.60;;;;;;;12.79;100.00;99680.56;4922979;28;20027;-80
2023/10/22 03:19:13;;;;;;;4.70;0.90;;;;;;;12.87;100.00;99694.34;4936380;28;20035;-80
2023/10/22 03:21:39;;;;;;;1.50;0.82;;;;;;;12.88;100.00;99698.81;4949000;29;20027;-80
2023/10/22 03:24:07;;;;;;;3.42;0.70;;;;;;;12.86;100.00;99704.47;4920504;29;20450;-80
2023/10/22 03:26:33;;;;;;;2.63;0.73;;;;;;;12.86;100.00;99703.63;4932747;29;20047;-80
2023/10/22 03:28:59;;;;;;;5.78;0.60;;;;;;;12.86;100.00;99712.72;4939274;28;20035;-80
2023/10/22 03:31:24;;;;;;;5.07;1.50;;;;;;;12.85;100.00;99722.00;4919083;29;20027;-80
2023/10/22 03:33:50;;;;;;;2.70;0.60;;;;;;;12.82;100.00;99725.06;4919954;29;20034;-81
2023/10/22 03:36:16;;;;;;;2.50;0.50;;;;;;;12.81;100.00;99725.25;4920364;29;20039;-80
2023/10/22 03:38:41;;;;;;;5.68;0.75;;;;;;;12.80;100.00;99737.25;4947155;28;20106;-80
2023/10/22 03:41:07;;;;;;;2.22;0.60;;;;;;;12.76;100.00;99735.84;4936154;29;20050;-80
2023/10/22 03:43:34;;;;;;;2.60;0.57;;;;;;;12.73;100.00;99739.78;4949112;29;20063;-80
2023/10/22 03:46:00;;;;;;;2.70;0.70;;;;;;;12.76;100.00;99744.94;4948436;28;20059;-80
2023/10/22 03:48:27;;;;;;;2.80;0.60;;;;;;;12.76;100.00;99752.34;4935378;29;20027;-80
2023/10/22 03:50:53;;;;;;;2.67;0.65;;;;;;;12.73;100.00;99756.25;4932730;29;20038;-81
2023/10/22 03:53:18;;;;;;;3.58;0.65;;;;;;;12.69;100.00;99752.97;4928536;29;20355;-81
2023/10/22 03:55:44;;;;;;;5.97;0.73;;;;;;;12.69;100.00;99758.47;4935421;29;20069;-80
2023/10/22 03:58:10;;;;;;;5.43;0.50;;;;;;;12.72;100.00;99764.66;4915770;29;20026;-81
2023/10/22 04:00:35;;;;;;;2.78;0.70;;;;;;;12.67;100.00;99779.75;4919130;29;20560;-80
2023/10/22 04:03:01;;;;;;;4.63;1.08;;;;;;;12.72;100.00;99783.88;4917862;29;20075;-80
2023/10/22 04:05:27;;;;;;;2.80;0.70;;;;;;;12.68;100.00;99786.09;4951437;28;20031;-80
2023/10/22 04:07:53;;;;;;;5.65;1.02;;;;;;;12.65;100.00;99797.41;4933733;29;20042;-80
2023/10/22 04:10:18;;;;;;;8.98;0.90;;;;;;;12.66;100.00;99796.41;4939851;29;20035;-80
2023/10/22 04:12:43;;;;;;;5.97;1.02;;;;;;;12.64;100.00;99792.94;4933355;29;20109;-80
2023/10/22 04:15:10;;;;;;;6.40;1.00;;;;;;;12.63;100.00;99805.81;4942400;29;20035;-80
2023/10/22 04:17:35;;;;;;;5.05;1.33;;;;;;;12.57;100.00;99808.34;4942853;29;20038;-80
2023/10/22 04:20:01;;;;;;;6.18;0.73;;;;;;;12.56;100.00;99810.22;4947776;29;20035;-80
2023/10/22 04:22:29;;;;;;;1.77;0.70;;;;;;;12.56;100.00;99821.22;4929603;29;20042;-80
2023/10/22 04:24:54;;;;;;;5.93;1.02;;;;;;;12.49;100.00;99821.00;4933967;29;20046;-81
2023/10/22 04:27:20;;;;;;;6.68;0.80;;;;;;;12.53;100.00;99828.88;4935506;29;20035;-80
2023/10/22 04:29:46;;;;;;;7.43;1.08;;;;;;;12.53;100.00;99832.50;4935046;29;20037;-80
2023/10/22 04:32:13;;;;;;;2.25;0.93;;;;;;;12.52;100.00;99833.53;4932774;29;20102;-80
2023/10/22 04:34:39;;;;;;;4.50;0.80;;;;;;;12.50;100.00;99838.31;4930560;29;20047;-80
2023/10/22 04:37:06;;;;;;;4.05;0.93;;;;;;;12.49;100.00;99850.31;4933900;29;20035;-81
2023/10/22 04:39:33;;;;;;;4.88;0.90;;;;;;;12.50;100.00;99846.56;4916853;29;20386;-80
2023/10/22 04:41:58;;;;;;;3.28;0.90;;;;;;;12.47;100.00;99852.34;4931817;29;20031;-81
2023/10/22 04:44:24;;;;;;;1.90;1.02;;;;;;;12.44;100.00;99856.28;4914915;29;20516;-81
2023/10/22 04:46:51;;;;;;;7.82;1.10;;;;;;;12.42;100.00;99869.31;4946898;28;20578;-80
2023/10/22 04:49:16;;;;;;;3.10;1.13;;;;;;;12.41;100.00;99867.59;4918493;29;20439;-80
2023/10/22 04:51:44;;;;;;;4.38;1.30;;;;;;;12.36;100.00;99874.56;4951814;28;20035;-80
2023/10/22 04:54:10;;;;;;;7.53;1.60;;;;;;;12.30;100.00;99873.31;4920754;28;20413;-80
2023/10/22 04:56:36;;;;;;;2.22;1.30;;;;;;;12.29;100.00;99871.59;4951480;28;20034;-80
2023/10/22 04:59:02;;;;;;;3.83;1.17;;;;;;;12.25;100.00;99884.75;4950525;28;20454;-81
2023/10/22 05:01:28;;;;;;;8.75;1.90;;;;;;;12.25;100.00;99882.03;4945192;29;20145;-81
2023/10/22 05:03:56;;;;;;;6.78;2.65;;;;;;;12.23;100.00;99891.41;4928676;29;20405;-80
2023/10/22 05:06:21;;;;;;;1.88;1.17;;;;;;;12.21;100.00;99893.47;4916794;28;20036;-79
2023/10/22 05:08:47;;;;;;;6.70;1.45;;;;;;;12.13;100.00;99905.22;4918919;29;20078;-80
2023/10/22 05:11:13;;;;;;;5.13;1.05;;;;;;;12.11;100.00;99901.75;4935356;29;20031;-81
2023/10/22 05:13:39;;;;;;;4.70;1.25;;;;;;;12.05;100.00;99908.75;4951906;29;20027;-80
2023/10/22 05:16:05;;;;;;;4.63;1.33;;;;;;;12.04;100.00;99911.66;4937859;29;20053;-80
2023/10/22 05:18:31;;;;;;;6.85;1.90;;;;;;;12.03;100.00;99916.25;4951903;28;20035;-81
2023/10/22 05:21:01;;;;;;;6.38;1.40;;;;;;;12.02;100.00;99919.16;4949816;28;20086;-81
2023/10/22 05:23:27;;;;;;;4.30;1.10;;;;;;;11.96;100.00;99920.63;4951515;29;20043;-80
2023/10/22 05:26:03;;;;;;;8.35;1.73;;;;;;;11.88;100.00;99932.34;4921409;29;20030;-80
2023/10/22 05:28:28;;;;;;;7.57;1.55;;;;;;;11.83;100.00;99940.16;4938023;29;20030;-80
2023/10/22 05:30:54;;;;;;;3.83;1.40;;;;;;;11.83;100.00;99951.13;4919007;29;20039;-80
2023/10/22 05:33:19;;;;;;;3.45;1.40;;;;;;;11.84;100.00;99950.13;4918199;28;20488;-81
2023/10/22 05:35:44;;;;;;;2.22;1.42;;;;;;;11.84;100.00;99961.09;4939576;28;20037;-80
2023/10/22 05:38:10;;;;;;;8.88;1.60;;;;;;;11.84;100.00;99969.31;4920491;29;20113;-81
2023/10/22 05:40:36;;;;;;;8.98;1.65;;;;;;;11.85;100.00;99970.19;4919995;29;20063;-81
2023/10/22 05:43:03;;;;;;;6.75;1.23;;;;;;;11.84;100.00;99974.81;4946926;29;20035;-81
2023/10/22 05:45:29;;;;;;;7.55;1.45;;;;;;;11.83;100.00;99975.81;4937576;29;20027;-81
2023/10/22 05:47:54;;;;;;;10.73;1.35;;;;;;;11.78;100.00;99976.25;4921465;29;20048;-81
2023/10/22 05:50:19;;;;;;;6.50;1.63;;;;;;;11.78;100.00;99981.75;4936085;29;20043;-81
2023/10/22 05:52:45;;;;;;;7.90;1.42;;;;;;;11.73;100.00;99985.97;4950877;28;20982;-80
2023/10/22 05:55:13;;;;;;;3.65;1.33;;;;;;;11.73;100.00;99983.22;4933963;29;20469;-80
2023/10/22 05:57:39;;;;;;;6.95;1.60;;;;;;;11.73;100.00;99977.75;4919438;29;20077;-80
2023/10/22 06:00:07;;;;;;;4.50;1.58;;;;;;;11.72;100.00;99989.72;4918646;29;20039;-80
2023/10/22 06:02:32;;;;;;;6.40;1.75;;;;;;;11.74;100.00;99985.81;4918164;28;20023;-80
2023/10/22 06:04:59;;;;;;;5.32;1.23;;;;;;;11.73;100.00;99999.69;4936489;29;20058;-81
2023/10/22 06:07:24;;;;;;;5.25;1.40;;;;;;;11.70;100.00;99999.97;4903773;29;20035;-81
2023/10/22 06:09:50;;;;;;;4.15;1.60;;;;;;;11.63;100.00;100007.09;4950311;28;20042;-81
2023/10/22 06:12:16;;;;;;;7.28;2.13;;;;;;;11.58;100.00;100016.63;4919776;29;20035;-81
2023/10/22 06:14:42;;;;;;;3.70;1.10;;;;;;;11.54;100.00;100019.78;4926843;29;20116;-80
2023/10/22 06:17:07;;;;;;;12.18;2.75;;;;;;;11.46;100.00;100020.56;4919952;29;20039;-81
2023/10/22 06:19:33;;;;;;;4.43;1.00;;;;;;;11.38;100.00;100034.13;4935165;28;20114;-81
2023/10/22 06:21:59;;;;;;;1.55;0.75;;;;;;;11.39;100.00;100033.09;4937538;29;20122;-80
2023/10/22 06:24:24;;;;;;;2.13;1.00;;;;;;;11.31;100.00;100042.06;4921096;29;20390;-81
2023/10/22 06:26:51;;;;;;;2.15;0.77;;;;;;;11.31;100.00;100058.50;4920812;28;20086;-80
2023/10/22 06:29:16;;;;;;;8.02;1.27;;;;;;;11.35;100.00;100056.34;4952462;28;20110;-80
2023/10/22 06:31:42;;;;;;;5.82;0.98;;;;;;;11.31;100.00;100063.13;4933622;29;20509;-80
2023/10/22 06:34:07;;;;;;;4.32;0.90;;;;;;;11.28;100.00;100055.19;4933284;28;20050;-80
2023/10/22 06:36:32;;;;;;;7.38;1.10;;;;;;;11.28;100.00;100056.06;4920360;28;20540;-81
2023/10/22 06:38:58;;;;;;;1.00;0.90;;;;;;;11.28;100.00;100071.63;4934709;29;20058;-80
2023/10/22 06:41:24;;;;;;;3.25;1.13;;;;;;;11.30;100.00;100066.91;4923276;28;20031;-80
2023/10/22 06:43:50;;;;;;;2.67;0.70;;;;;;;11.30;100.00;100067.75;4951365;28;20050;-80
2023/10/22 06:46:17;;;;;;;1.25;0.80;;;;;;;11.29;100.00;100079.72;4936931;28;20129;-81
2023/10/22 06:48:43;;;;;;;3.33;1.00;;;;;;;11.32;100.00;100084.91;4952212;28;20027;-87
2023/10/22 06:51:10;;;;;;;4.50;1.23;;;;;;;11.31;100.00;100088.66;4922119;28;20034;-87
2023/10/22 06:53:37;;;;;;;6.25;1.05;;;;;;;11.31;100.00;100091.38;4941182;29;20049;-86
2023/10/22 06:56:03;;;;;;;4.90;0.90;;;;;;;11.31;100.00;100085.91;4928539;28;20043;-87
2023/10/22 06:58:29;;;;;;;1.90;0.90;;;;;;;11.36;100.00;100097.31;4939272;29;20036;-87
2023/10/22 07:01:06;;;;;;;3.47;0.73;;;;;;;11.38;100.00;100099.91;4954126;28;20027;-87
2023/10/22 07:03:34;;;;;;;3.40;1.00;;;;;;;11.47;100.00;100101.75;4953877;29;20050;-86
2023/10/22 07:06:00;;;;;;;6.50;1.10;;;;;;;11.53;100.00;100103.06;4954469;28;20114;-87
2023/10/22 07:08:26;;;;;;;2.22;0.90;;;;;;;11.55;100.00;100112.00;4956183;28;20126;-90
2023/10/22 07:10:51;;;;;;;3.85;0.90;;;;;;;11.55;100.00;100114.75;4904962;28;20038;-87
2023/10/22 07:13:20;;;;;;;2.63;0.80;;;;;;;11.61;100.00;100118.78;4954042;28;20039;-87
2023/10/22 07:15:46;;;;;;;5.78;1.25;;;;;;;11.66;100.00;100127.41;4907769;28;20031;-87
2023/10/22 07:18:12;;;;;;;3.30;1.13;;;;;;;11.65;100.00;100129.31;4909346;28;20118;-86
2023/10/22 07:20:39;;;;;;;5.93;0.93;;;;;;;11.65;100.00;100134.78;4951070;28;20031;-89
2023/10/22 07:23:07;;;;;;;4.88;1.10;;;;;;;11.71;100.00;100134.22;4950314;28;20031;-85
2023/10/22 07:25:33;;;;;;;5.65;1.20;;;;;;;11.77;100.00;100138.22;4936224;28;20109;-84
2023/10/22 07:27:59;;;;;;;10.23;1.50;;;;;;;11.84;100.00;100158.59;4948704;28;20178;-84
2023/10/22 07:30:24;;;;;;;2.53;0.90;;;;;;;11.91;100.00;100157.00;4950690;28;20031;-85
2023/10/22 07:32:52;;;;;;;3.33;1.02;;;;;;;12.02;100.00;100160.59;4947863;28;20501;-85
2023/10/22 07:35:18;;;;;;;6.47;1.85;;;;;;;12.06;100.00;100165.63;4933612;29;20493;-85
2023/10/22 07:37:44;;;;;;;2.97;1.38;;;;;;;12.07;100.00;100166.53;4950854;28;20078;-85
2023/10/22 07:40:13;;;;;;;2.92;1.00;;;;;;;12.16;100.00;100171.09;4952429;28;20145;-84
2023/10/22 07:42:42;;;;;;;2.88;1.10;;;;;;;12.17;100.00;100170.09;4934186;28;20134;-86
2023/10/22 07:45:09;;;;;;;6.00;1.10;;;;;;;12.15;100.00;100177.63;4950461;28;20039;-84
2023/10/22 07:47:36;;;;;;;4.40;1.08;;;;;;;12.19;100.00;100176.28;4936782;28;20424;-87
2023/10/22 07:50:03;;;;;;;8.15;1.23;;;;;;;12.28;100.00;100182.75;4934622;29;20058;-89
2023/10/22 07:52:31;;;;;;;21.02;2.03;;;;;;;12.32;100.00;100184.19;4953208;28;21642;-89
2023/10/22 07:54:56;;;;;;;7.97;1.20;;;;;;;12.47;100.00;100187.31;4938832;28;20029;-86
2023/10/22 07:57:22;;;;;;;15.95;1.50;;;;;;;12.53;100.00;100181.25;4949148;28;20031;-86
2023/10/22 07:59:47;;;;;;;6.32;1.08;;;;;;;12.58;100.00;100189.88;4904675;29;20517;-82
2023/10/22 08:02:13;;;;;;;3.72;0.95;;;;;;;12.51;100.00;100191.53;4915666;28;20039;-81
2023/10/22 08:04:38;;;;;;;3.65;1.08;;;;;;;12.53;100.00;100205.97;4932422;29;20115;-81
2023/10/22 08:07:04;;;;;;;8.57;1.25;;;;;;;12.47;100.00;100198.31;4931892;29;20047;-83
2023/10/22 08:09:31;;;;;;;19.73;1.33;;;;;;;12.43;100.00;100206.00;4948676;28;20110;-81
2023/10/22 08:11:56;;;;;;;3.88;1.10;;;;;;;12.40;100.00;100200.78;4934370;28;20036;-81
2023/10/22 08:14:22;;;;;;;13.48;1.08;;;;;;;12.40;100.00;100208.16;4930623;29;20034;-84
2023/10/22 08:16:49;;;;;;;11.13;1.40;;;;;;;12.41;100.00;100208.03;4933291;28;20394;-82
2023/10/22 08:19:17;;;;;;;9.80;1.20;;;;;;;12.51;100.00;100218.97;4935127;28;20038;-84
2023/10/22 08:21:42;;;;;;;4.00;1.23;;;;;;;12.54;100.00;100223.28;4918006;28;20066;-82
2023/10/22 08:24:09;;;;;;;8.35;1.50;;;;;;;12.61;100.00;100224.41;4916953;28;20179;-86
2023/10/22 08:26:38;;;;;;;6.80;1.35;;;;;;;12.65;100.00;100232.19;4935843;29;20035;-95
2023/10/22 08:29:04;;;;;;;5.00;1.10;;;;;;;12.65;100.00;100231.34;4960767;28;20502;-85
2023/10/22 08:31:29;;;;;;;4.53;1.00;;;;;;;12.77;100.00;100237.50;4951017;28;20038;-85
2023/10/22 08:34:01;;;;;;;10.82;1.67;;;;;;;12.91;100.00;100237.00;4935586;29;20030;-94
2023/10/22 08:36:27;;;;;;;12.38;1.48;;;;;;;12.92;100.00;100241.50;4936343;29;20033;-90
2023/10/22 08:38:52;;;;;;;11.88;1.45;;;;;;;13.01;100.00;100236.97;4920714;28;20468;-87
2023/10/22 08:41:23;;;;;;;10.18;1.75;;;;;;;12.97;100.00;100241.91;4934918;29;20036;-92
2023/10/22 08:43:49;;;;;;;17.63;1.50;;;;;;;13.04;100.00;100248.50;4938960;28;20126;-88
2023/10/22 08:46:15;;;;;;;16.33;1.92;;;;;;;13.04;100.00;100254.00;4951343;28;20047;-90
2023/10/22 08:48:41;;;;;;;5.50;2.10;;;;;;;13.05;100.00;100253.00;4924295;29;20031;-91
2023/10/22 08:51:07;;;;;;;11.13;1.23;;;;;;;13.14;100.00;100261.34;4937942;29;20154;-85
2023/10/22 08:53:33;;;;;;;8.35;1.17;;;;;;;13.11;100.00;100256.16;4939591;29;20404;-85
2023/10/22 08:56:01;;;;;;;9.98;1.30;;;;;;;13.18;100.00;100257.25;4956470;28;20620;-85
2023/10/22 08:58:27;;;;;;;8.18;1.40;;;;;;;13.24;100.00;100256.66;4955134;28;20511;-85
2023/10/22 09:00:53;;;;;;;6.55;1.13;;;;;;;13.22;100.00;100262.31;4954315;28;20168;-84
2023/10/22 09:03:20;;;;;;;5.70;1.50;;;;;;;13.18;100.00;100266.38;4957412;28;20051;-85
2023/10/22 09:05:47;;;;;;;5.18;1.33;;;;;;;13.26;100.00;100265.59;4936960;29;20126;-84
2023/10/22 09:08:13;;;;;;;5.82;1.50;;;;;;;13.28;100.00;100265.44;4924531;29;20089;-90
2023/10/22 09:10:40;;;;;;;10.55;1.80;;;;;;;13.37;100.00;100273.69;4939423;28;20034;-86
2023/10/22 09:13:22;;;;;;;4.22;1.35;;;;;;;13.30;100.00;100294.53;4925828;28;20035;-88
2023/10/22 09:15:50;;;;;;;19.25;2.95;;;;;;;13.48;100.00;100288.22;4953726;28;20031;-89
2023/10/22 09:18:17;;;;;;;10.05;1.77;;;;;;;13.76;100.00;100292.66;4945904;28;20038;-87
2023/10/22 09:20:44;;;;;;;4.13;1.80;;;;;;;13.56;100.00;100293.81;4943641;28;20035;-88
2023/10/22 09:23:21;;;;;;;5.57;1.42;;;;;;;13.52;100.00;100287.75;4958259;29;20054;-91
2023/10/22 09:25:48;;;;;;;6.15;1.63;;;;;;;13.66;100.00;100302.00;4954556;28;20065;-92
2023/10/22 09:28:30;;;;;;;4.40;1.98;;;;;;;13.66;100.00;100299.25;4962475;29;20477;-96
2023/10/22 09:31:06;;;;;;;4.47;1.58;;;;;;;13.63;100.00;100302.34;4951522;29;20062;-93
2023/10/22 09:33:37;;;;;;;33.08;3.58;;;;;;;13.56;100.00;100313.97;4938170;28;20168;-96
2023/10/22 09:36:02;;;;;;;43.00;3.08;;;;;;;13.49;100.00;100318.31;4946501;29;20046;-96
2023/10/22 09:38:54;;;;;;;22.98;2.80;;;;;;;13.46;100.00;100320.53;4969782;28;20031;-96
2023/10/22 09:41:22;;;;;;;7.43;2.50;;;;;;;13.55;100.00;100320.47;4953053;28;20123;-95
2023/10/22 09:43:50;;;;;;;19.45;3.05;;;;;;;13.85;100.00;100323.03;4966512;28;20047;-92
2023/10/22 09:46:18;;;;;;;31.02;3.10;;;;;;;13.83;100.00;100323.19;4924133;28;20128;-92
2023/10/22 09:48:49;;;;;;;52.10;4.38;;;;;;;13.65;100.00;100327.81;4943192;29;20568;-90
2023/10/22 09:51:17;;;;;;;12.23;2.35;;;;;;;13.79;100.00;100335.53;4954517;28;20048;-92
2023/10/22 09:53:51;;;;;;;12.27;2.53;;;;;;;13.92;100.00;100340.63;4951513;29;20031;-93
2023/10/22 09:56:19;;;;;;;6.72;2.28;;;;;;;13.92;100.00;100335.13;4944663;29;20082;-93
2023/10/22 09:58:48;;;;;;;13.80;2.55;;;;;;;13.88;100.00;100336.47;4950125;29;20015;-93
2023/10/22 10:01:14;;;;;;;10.63;2.60;;;;;;;14.03;100.00;100331.28;4944580;29;20028;-93
2023/10/22 10:03:40;;;;;;;28.83;3.38;;;;;;;14.23;100.00;100330.13;4927900;29;20118;-89
2023/10/22 10:06:08;;;;;;;42.45;4.68;;;;;;;14.24;100.00;100342.84;4941480;29;20050;-91
2023/10/22 10:08:36;;;;;;;45.78;4.00;;;;;;;14.30;100.00;100333.09;4958185;29;20067;-90
2023/10/22 10:11:06;;;;;;;14.88;2.50;;;;;;;14.55;100.00;100328.66;4956498;29;20031;-91
2023/10/22 10:13:32;;;;;;;17.83;2.75;;;;;;;14.58;100.00;100341.25;4927649;29;20031;-90
2023/10/22 10:15:59;;;;;;;7.10;2.35;;;;;;;14.81;100.00;100336.09;4925231;29;20393;-89
2023/10/22 10:19:04;;;;;;;7.80;2.53;;;;;;;14.50;100.00;100334.63;4942422;29;20066;-91
2023/10/22 10:21:45;;;;;;;10.52;2.20;;;;;;;14.53;100.00;100336.22;4931077;29;20204;-91
2023/10/22 10:24:14;;;;;;;38.60;3.05;;;;;;;14.58;100.00;100344.88;4957153;28;20027;-92
2023/10/22 10:26:39;;;;;;;13.45;2.38;;;;;;;14.99;100.00;100352.59;4955658;29;20110;-94
2023/10/22 10:29:05;;;;;;;9.38;1.73;;;;;;;15.07;100.00;100347.13;4927096;29;20609;-92
2023/10/22 10:31:31;;;;;;;9.38;1.73;;;;;;;14.97;100.00;100344.47;4934034;29;20054;-93
2023/10/22 10:34:03;;;;;;;23.83;2.13;;;;;;;14.86;100.00;100353.03;4936781;28;20042;-90
2023/10/22 10:36:35;;;;;;;8.90;1.98;;;;;;;14.64;100.00;100351.63;4958413;28;20477;-96
2023/10/22 10:39:47;;;;;;;2.80;1.67;;;;;;;14.42;100.00;100351.09;4953565;28;20082;-92
2023/10/22 10:42:29;;;;;;;4.82;1.80;;;;;;;14.64;100.00;100346.13;4868298;29;20025;-96
2023/10/22 10:45:00;;;;;;;5.88;1.63;;;;;;;14.59;100.00;100353.97;4857538;29;20066;-96
2023/10/22 10:47:27;;;;;;;1.80;1.35;;;;;;;14.33;100.00;100352.94;4929461;29;20088;-95
2023/10/22 10:50:03;;;;;;;6.88;1.75;;;;;;;14.46;100.00;100354.38;4952013;29;20027;-96
2023/10/22 10:52:31;;;;;;;3.38;1.48;;;;;;;14.69;100.00;100361.16;4960640;28;20036;-96
2023/10/22 10:55:01;;;;;;;3.70;1.50;;;;;;;14.47;100.00;100354.22;4939726;29;20501;-94
2023/10/22 10:57:40;;;;;;;4.15;1.40;;;;;;;14.46;100.00;100362.66;4912011;29;20489;-95
2023/10/22 11:00:09;;;;;;;5.20;1.35;;;;;;;14.47;100.00;100368.00;4922191;29;20504;-96
2023/10/22 11:02:47;;;;;;;3.08;1.73;;;;;;;14.35;100.00;100372.03;4924867;29;20118;-96
2023/10/22 11:05:14;;;;;;;5.57;1.63;;;;;;;14.43;100.00;100369.38;4923313;29;20047;-96
2023/10/22 11:07:42;;;;;;;3.28;1.50;;;;;;;14.43;100.00;100365.72;4930563;28;20027;-96
2023/10/22 11:10:09;;;;;;;5.47;1.55;;;;;;;14.39;100.00;100367.94;4958885;28;20137;-96
2023/10/22 11:12:37;;;;;;;3.70;1.40;;;;;;;14.31;100.00;100368.75;4926339;29;20027;-96
2023/10/22 11:15:06;;;;;;;2.80;1.33;;;;;;;14.28;100.00;100366.31;4908631;29;20486;-95
2023/10/22 11:17:31;;;;;;;7.75;3.08;;;;;;;14.29;100.00;100375.44;4920986;29;20032;-93
2023/10/22 11:20:04;;;;;;;4.32;1.45;;;;;;;14.76;100.00;100371.53;4925231;29;20033;-96
2023/10/22 11:22:29;;;;;;;;;;;;;;;14.89;100.00;100372.00;4955376;29;20374;-95